Roseland, Nebraska
Current Conditions -  °F | °C
As of 5:20 AM on Monday 22 Dec 2014 (Local Time) from KHSI Reporting Station
Haze Haze  
Wind Chill: 33°   Ceiling: 400
Heat Index: 39°   Visibility: 5mi
Dew Point: 36°   Wind: 9mph
Humidity: 89%   Direction: 260°W
Pressure: 29.5"   Gusts: NA
Location:  40.47°N, 98.56°W
Report Text: KHSI 221120Z AUTO 26008KT 5SM BR BKN004 BKN014 04/02 A2950 RMK AO2 CIG 003V009 T00390022
Loading
Personal Weather Stations






























Interactive Weather Map New forecast layout! Learn more

10-Day Weather Forecast

Advertisements
Track Severe Weather on mobile